createdAt,value
2018-02-10T00:02:22.846Z,80.37
2018-02-10T00:04:49.284Z,76.30
2018-02-10T00:07:16.106Z,77.00
2018-02-10T00:09:43.354Z,74.57
2018-02-10T00:12:10.117Z,66.33
2018-02-10T00:14:36.741Z,66.57
2018-02-10T00:17:03.983Z,83.33
2018-02-10T00:19:30.417Z,66.67
2018-02-10T00:21:57.603Z,70.93
2018-02-10T00:24:24.083Z,66.20
2018-02-10T00:26:51.378Z,70.87
2018-02-10T00:29:17.809Z,68.43
2018-02-10T00:31:45.067Z,71.83
2018-02-10T00:34:12.223Z,60.77
2018-02-10T00:36:38.698Z,62.30
2018-02-10T00:39:05.152Z,70.03
2018-02-10T00:41:31.612Z,61.70
2018-02-10T00:43:58.797Z,63.03
2018-02-10T00:46:25.228Z,65.23
2018-02-10T00:48:51.647Z,69.40
2018-02-10T00:51:18.063Z,71.90
2018-02-10T00:53:44.531Z,63.20
2018-02-10T00:56:10.975Z,70.43
2018-02-10T00:58:37.428Z,66.63
2018-02-10T01:01:04.800Z,72.17
2018-02-10T01:03:31.290Z,78.13
2018-02-10T01:05:57.724Z,77.50
2018-02-10T01:08:24.162Z,77.30
2018-02-10T01:10:50.633Z,67.00
2018-02-10T01:13:17.974Z,73.40
2018-02-10T01:15:45.317Z,63.20
2018-02-10T01:18:11.726Z,68.17
2018-02-10T01:20:38.855Z,63.73
2018-02-10T01:23:05.321Z,65.03
2018-02-10T01:25:31.724Z,64.57
2018-02-10T01:27:58.915Z,65.23
2018-02-10T01:30:25.368Z,68.67
2018-02-10T01:32:51.812Z,71.93
2018-02-10T01:35:18.267Z,68.77
2018-02-10T01:37:44.753Z,71.93
2018-02-10T01:40:11.166Z,71.50
2018-02-10T01:42:37.579Z,72.47
2018-02-10T01:45:04.051Z,63.53
2018-02-10T01:47:30.482Z,68.00
2018-02-10T01:50:09.202Z,71.63
2018-02-10T01:52:35.766Z,62.87
2018-02-10T01:55:02.926Z,65.93
2018-02-10T01:57:30.086Z,67.30
2018-02-10T01:59:57.222Z,75.77
2018-02-10T02:02:23.648Z,64.83
2018-02-10T02:04:50.385Z,73.23
2018-02-10T02:07:17.543Z,64.50
2018-02-10T02:09:43.915Z,71.30
2018-02-10T02:12:10.403Z,69.03
2018-02-10T02:14:36.942Z,64.17
2018-02-10T02:17:03.330Z,74.10
2018-02-10T02:19:29.819Z,71.07
2018-02-10T02:21:56.966Z,70.73
2018-02-10T02:24:24.210Z,71.13
2018-02-10T02:26:51.406Z,69.47
2018-02-10T02:29:17.806Z,66.93
2018-02-10T02:31:45.019Z,77.93
2018-02-10T02:34:11.460Z,67.10
2018-02-10T02:36:39.391Z,67.17
2018-02-10T02:39:05.982Z,63.60
2018-02-10T02:41:32.466Z,68.23
2018-02-10T02:43:58.945Z,66.80
2018-02-10T02:46:25.467Z,67.23
2018-02-10T02:48:51.911Z,70.57
2018-02-10T02:51:18.330Z,72.43
2018-02-10T02:53:44.742Z,71.70
2018-02-10T02:56:11.163Z,68.03
2018-02-10T02:58:37.596Z,63.20
2018-02-10T03:01:04.133Z,72.90
2018-02-10T03:03:30.718Z,76.73
2018-02-10T03:05:57.116Z,69.40
2018-02-10T03:08:23.602Z,64.10
2018-02-10T03:10:50.054Z,70.30
2018-02-10T03:13:16.464Z,67.30
2018-02-10T03:15:42.885Z,60.43
2018-02-10T03:18:09.316Z,67.40
2018-02-10T03:20:35.851Z,69.23
2018-02-10T03:23:02.236Z,63.00
2018-02-10T03:25:28.655Z,70.93
2018-02-10T03:27:55.109Z,67.23
2018-02-10T03:30:21.684Z,58.40
2018-02-10T03:32:48.130Z,65.53
2018-02-10T03:35:15.282Z,70.83
2018-02-10T03:37:41.800Z,77.67
2018-02-10T03:40:08.962Z,62.77
2018-02-10T03:42:35.423Z,61.70
2018-02-10T03:45:02.023Z,67.13
2018-02-10T03:47:29.216Z,60.20
2018-02-10T03:49:55.619Z,71.53
2018-02-10T03:52:22.787Z,65.73
2018-02-10T03:54:50.107Z,60.37
2018-02-10T03:57:17.288Z,74.23
2018-02-10T03:59:43.653Z,63.27
2018-02-10T04:02:10.078Z,61.57
2018-02-10T04:04:36.632Z,62.90
2018-02-10T04:07:03.066Z,64.60
2018-02-10T04:09:29.489Z,72.80
2018-02-10T04:11:55.925Z,71.93
2018-02-10T04:14:22.419Z,67.37
2018-02-10T04:16:48.929Z,68.43
2018-02-10T04:19:15.461Z,62.50
2018-02-10T04:21:41.997Z,61.50
2018-02-10T04:24:08.530Z,66.43
2018-02-10T04:26:34.962Z,66.23
2018-02-10T04:29:01.378Z,59.80
2018-02-10T04:31:27.832Z,61.90
2018-02-10T04:33:54.970Z,62.53
2018-02-10T04:36:21.394Z,61.37
2018-02-10T04:38:47.863Z,73.80
2018-02-10T04:41:14.259Z,63.63
2018-02-10T04:43:40.815Z,74.13
2018-02-10T04:46:07.328Z,65.80
2018-02-10T04:48:34.511Z,63.30
2018-02-10T04:51:00.887Z,60.87
2018-02-10T04:53:27.311Z,66.23
2018-02-10T04:55:53.742Z,68.57
2018-02-10T04:58:20.146Z,69.67
2018-02-10T05:00:47.302Z,62.17
2018-02-10T05:03:14.440Z,62.97
2018-02-10T05:05:40.829Z,64.80
2018-02-10T05:08:07.307Z,65.20
2018-02-10T05:10:33.934Z,63.20
2018-02-10T05:13:00.467Z,63.03
2018-02-10T05:15:26.925Z,66.23
2018-02-10T05:17:53.393Z,76.13
2018-02-10T05:20:19.788Z,68.40
2018-02-10T05:22:46.188Z,68.10
2018-02-10T05:25:12.738Z,62.20
2018-02-10T05:27:39.986Z,60.20
2018-02-10T05:30:07.219Z,66.50
2018-02-10T05:32:33.674Z,68.60
2018-02-10T05:35:00.142Z,62.70
2018-02-10T05:37:26.574Z,69.80
2018-02-10T05:40:00.755Z,70.17
2018-02-10T05:42:27.191Z,65.97
2018-02-10T05:44:53.666Z,61.97
2018-02-10T05:47:20.768Z,67.87
2018-02-10T05:49:47.918Z,65.10
2018-02-10T05:52:14.344Z,65.37
2018-02-10T05:54:40.761Z,70.13
2018-02-10T05:57:07.221Z,65.20
2018-02-10T05:59:33.625Z,71.93
2018-02-10T06:02:00.020Z,65.60
2018-02-10T06:04:26.444Z,67.53
2018-02-10T06:06:52.902Z,63.80
2018-02-10T06:09:19.352Z,62.77
2018-02-10T06:11:45.816Z,59.50
2018-02-10T06:14:12.250Z,60.50
2018-02-10T06:16:38.728Z,56.50
2018-02-10T06:19:05.133Z,61.50
2018-02-10T06:21:31.590Z,59.90
2018-02-10T06:23:58.071Z,76.10
2018-02-10T06:26:24.478Z,65.80
2018-02-10T06:28:50.922Z,68.50
2018-02-10T06:31:17.330Z,65.87
2018-02-10T06:33:43.917Z,63.53
2018-02-10T06:36:11.082Z,57.23
2018-02-10T06:38:37.516Z,265.13
2018-02-10T06:41:03.900Z,60.50
2018-02-10T06:43:30.322Z,62.87
2018-02-10T06:45:56.720Z,65.60
2018-02-10T06:48:23.875Z,66.03
2018-02-10T06:50:50.289Z,56.27
2018-02-10T06:53:16.813Z,57.40
2018-02-10T06:55:43.246Z,99.67
2018-02-10T06:58:09.762Z,60.57
2018-02-10T07:00:37.117Z,136.03
2018-02-10T07:03:03.671Z,73.93
2018-02-10T07:05:30.073Z,62.00
2018-02-10T07:07:56.518Z,61.80
2018-02-10T07:10:23.688Z,53.20
2018-02-10T07:12:50.170Z,59.70
2018-02-10T07:15:17.291Z,57.37
2018-02-10T07:17:44.437Z,51.17
2018-02-10T07:20:10.862Z,53.27
2018-02-10T07:22:38.087Z,53.73
2018-02-10T07:25:05.275Z,63.80
2018-02-10T07:27:32.451Z,84.93
2018-02-10T07:29:58.899Z,57.53
2018-02-10T07:32:25.448Z,54.20
2018-02-10T07:34:51.894Z,59.17
2018-02-10T07:37:18.444Z,59.83
2018-02-10T07:39:45.594Z,60.33
2018-02-10T07:42:12.016Z,57.50
2018-02-10T07:44:38.485Z,70.10
2018-02-10T07:47:05.721Z,61.73
2018-02-10T07:49:32.177Z,58.50
2018-02-10T07:51:58.578Z,57.80
2018-02-10T07:54:25.008Z,136.23
2018-02-10T07:56:51.548Z,66.73
2018-02-10T07:59:18.757Z,147.17
2018-02-10T08:01:45.240Z,149.23
2018-02-10T08:04:12.456Z,64.20
2018-02-10T08:06:38.938Z,103.27
2018-02-10T08:09:05.351Z,61.13
2018-02-10T08:11:31.785Z,51.23
2018-02-10T08:13:58.251Z,68.73
2018-02-10T08:16:24.670Z,55.60
2018-02-10T08:18:51.899Z,62.23
2018-02-10T08:21:18.439Z,57.60
2018-02-10T08:23:44.878Z,53.10
2018-02-10T08:26:11.404Z,46.73
2018-02-10T08:28:37.892Z,50.90
2018-02-10T08:31:04.329Z,50.27
2018-02-10T08:33:30.813Z,47.77
2018-02-10T08:35:57.243Z,58.83
2018-02-10T08:38:23.631Z,55.13
2018-02-10T08:40:50.075Z,57.93
2018-02-10T08:43:16.541Z,52.07
2018-02-10T08:45:43.788Z,46.40
2018-02-10T08:48:10.974Z,43.13
2018-02-10T08:50:37.456Z,299.47
2018-02-10T08:53:03.912Z,48.60
2018-02-10T08:55:31.080Z,57.00
2018-02-10T08:57:57.507Z,50.23
2018-02-10T09:00:24.046Z,44.63
2018-02-10T09:02:51.212Z,45.80
2018-02-10T09:05:17.715Z,45.70
2018-02-10T09:07:44.867Z,49.07
2018-02-10T09:10:12.220Z,48.87
2018-02-10T09:12:38.623Z,45.90
2018-02-10T09:15:05.068Z,41.93
2018-02-10T09:17:31.506Z,45.73
2018-02-10T09:19:57.906Z,45.50
2018-02-10T09:22:24.379Z,44.43
2018-02-10T09:24:50.825Z,39.20
2018-02-10T09:27:17.346Z,38.17
2018-02-10T09:29:43.783Z,39.50
2018-02-10T09:32:11.137Z,38.43
2018-02-10T09:34:37.550Z,38.00
2018-02-10T09:37:04.003Z,39.70
2018-02-10T09:39:30.431Z,35.30
2018-02-10T09:41:56.867Z,41.50
2018-02-10T09:44:23.298Z,37.43
2018-02-10T09:46:49.938Z,55.57
2018-02-10T09:49:16.310Z,52.63
2018-02-10T09:51:42.758Z,34.80
2018-02-10T09:54:09.170Z,30.97
2018-02-10T09:56:35.619Z,41.07
2018-02-10T09:59:02.469Z,36.63
2018-02-10T10:01:29.173Z,36.30
2018-02-10T10:03:55.901Z,37.73
2018-02-10T10:06:22.458Z,36.30
2018-02-10T10:08:48.916Z,33.23
2018-02-10T10:11:15.372Z,44.13
2018-02-10T10:13:41.840Z,35.13
2018-02-10T10:16:09.022Z,36.10
2018-02-10T10:18:35.483Z,38.53
2018-02-10T10:21:02.048Z,39.17
2018-02-10T10:23:28.533Z,34.70
2018-02-10T10:25:55.666Z,36.93
2018-02-10T10:28:22.947Z,33.30
2018-02-10T10:30:49.623Z,30.40
2018-02-10T10:33:16.161Z,36.70
2018-02-10T10:35:43.340Z,33.80
2018-02-10T10:38:10.534Z,37.47
2018-02-10T10:40:36.932Z,34.03
2018-02-10T10:43:03.370Z,33.37
2018-02-10T10:45:29.802Z,33.73
2018-02-10T10:47:56.292Z,34.43
2018-02-10T10:50:23.527Z,34.57
2018-02-10T10:52:50.183Z,35.77
2018-02-10T10:55:16.821Z,33.03
2018-02-10T10:57:43.355Z,38.50
2018-02-10T11:00:10.009Z,35.40
2018-02-10T11:02:36.630Z,33.70
2018-02-10T11:05:03.985Z,32.47
2018-02-10T11:07:30.438Z,28.37
2018-02-10T11:09:57.596Z,33.27
2018-02-10T11:12:24.738Z,29.97
2018-02-10T11:14:51.987Z,32.70
2018-02-10T11:17:19.178Z,33.60
2018-02-10T11:19:45.598Z,32.03
2018-02-10T11:22:12.068Z,32.10
2018-02-10T11:24:38.508Z,28.40
2018-02-10T11:27:04.919Z,30.97
2018-02-10T11:29:31.571Z,31.20
2018-02-10T11:31:58.247Z,29.50
2018-02-10T11:34:24.875Z,30.70
2018-02-10T11:36:51.373Z,33.60
2018-02-10T11:39:17.820Z,29.50
2018-02-10T11:41:44.284Z,30.10
2018-02-10T11:44:11.484Z,30.00
2018-02-10T11:46:38.684Z,26.97
2018-02-10T11:49:05.118Z,31.93
2018-02-10T11:51:32.299Z,31.00
2018-02-10T11:53:58.703Z,29.17
2018-02-10T11:56:25.991Z,24.33
2018-02-10T11:58:52.461Z,28.93
2018-02-10T12:01:18.926Z,24.87
2018-02-10T12:03:45.347Z,29.90
2018-02-10T12:06:11.826Z,25.13
2018-02-10T12:08:38.254Z,26.27
2018-02-10T12:11:04.700Z,26.80
2018-02-10T12:13:31.191Z,30.80
2018-02-10T12:15:58.360Z,25.47
2018-02-10T12:18:24.779Z,25.73
2018-02-10T12:20:51.953Z,27.30
2018-02-10T12:23:18.547Z,28.17
2018-02-10T12:25:46.423Z,24.20
2018-02-10T12:28:13.601Z,23.40
2018-02-10T12:30:41.239Z,27.13
2018-02-10T12:33:07.944Z,26.40
2018-02-10T12:35:34.389Z,22.47
2018-02-10T12:38:00.930Z,21.30
2018-02-10T12:40:27.392Z,25.10
2018-02-10T12:42:53.912Z,21.03
2018-02-10T12:45:21.114Z,21.50
2018-02-10T12:47:53.596Z,19.70
2018-02-10T12:50:20.022Z,22.37
2018-02-10T12:52:46.427Z,22.43
2018-02-10T12:55:12.886Z,20.70
2018-02-10T12:57:39.561Z,22.23
2018-02-10T13:00:05.973Z,18.80
2018-02-10T13:02:32.417Z,21.50
2018-02-10T13:04:59.686Z,21.33
2018-02-10T13:07:26.218Z,19.10
2018-02-10T13:09:52.753Z,20.10
2018-02-10T13:12:19.136Z,24.67
2018-02-10T13:14:45.588Z,24.70
2018-02-10T13:17:12.129Z,22.13
2018-02-10T13:19:38.596Z,19.97
2018-02-10T13:22:05.091Z,17.50
2018-02-10T13:24:31.523Z,20.60
2018-02-10T13:26:57.931Z,21.90
2018-02-10T13:29:24.391Z,21.70
2018-02-10T13:31:50.840Z,20.47
2018-02-10T13:34:17.363Z,19.17
2018-02-10T13:36:43.854Z,20.77
2018-02-10T13:39:10.286Z,18.27
2018-02-10T13:41:36.908Z,18.53
2018-02-10T13:44:03.386Z,17.97
2018-02-10T13:46:29.881Z,19.17
2018-02-10T13:48:57.106Z,19.97
2018-02-10T13:51:24.304Z,17.30
2018-02-10T13:53:50.738Z,17.40
2018-02-10T13:56:17.174Z,16.47
2018-02-10T13:58:43.609Z,14.87
2018-02-10T14:01:10.181Z,16.20
2018-02-10T14:03:36.602Z,16.97
2018-02-10T14:06:03.049Z,20.70
2018-02-10T14:08:30.272Z,15.73
2018-02-10T14:10:56.674Z,15.43
2018-02-10T14:13:23.264Z,15.67
2018-02-10T14:15:49.720Z,16.07
2018-02-10T14:18:16.359Z,21.70
2018-02-10T14:20:42.847Z,15.30
2018-02-10T14:23:09.351Z,15.77
2018-02-10T14:25:36.557Z,13.60
2018-02-10T14:28:03.168Z,16.10
2018-02-10T14:30:30.349Z,18.13
2018-02-10T14:32:56.902Z,16.03
2018-02-10T14:35:24.332Z,14.90
2018-02-10T14:37:50.780Z,18.27
2018-02-10T14:40:17.246Z,16.70
2018-02-10T14:42:44.674Z,14.37
2018-02-10T14:45:11.960Z,18.27
2018-02-10T14:47:39.106Z,16.83
2018-02-10T14:50:05.531Z,14.27
2018-02-10T14:52:32.743Z,18.17
2018-02-10T14:54:59.283Z,14.50
2018-02-10T14:57:25.813Z,20.07
2018-02-10T14:59:52.602Z,13.90
2018-02-10T15:02:19.078Z,16.63
2018-02-10T15:04:45.492Z,13.63
2018-02-10T15:07:12.696Z,13.73
2018-02-10T15:09:39.162Z,13.67
2018-02-10T15:12:05.777Z,16.43
2018-02-10T15:14:32.388Z,16.33
2018-02-10T15:16:58.871Z,13.80
2018-02-10T15:19:25.421Z,14.20
2018-02-10T15:21:51.939Z,16.10
2018-02-10T15:24:18.413Z,25.50
2018-02-10T15:26:44.860Z,15.23
2018-02-10T15:29:12.947Z,18.13
2018-02-10T15:31:52.591Z,17.17
2018-02-10T15:34:29.948Z,20.90
2018-02-10T15:36:56.366Z,14.70
2018-02-10T15:39:22.831Z,15.40
2018-02-10T15:41:49.493Z,16.97
2018-02-10T15:44:16.121Z,14.63
2018-02-10T15:46:43.347Z,14.57
2018-02-10T15:49:09.806Z,14.90
2018-02-10T15:51:36.299Z,12.30
2018-02-10T15:54:02.925Z,13.17
2018-02-10T15:56:29.446Z,16.97
2018-02-10T15:58:56.040Z,14.80
2018-02-10T16:01:23.224Z,15.10
2018-02-10T16:03:50.394Z,17.57
2018-02-10T16:06:16.936Z,16.17
2018-02-10T16:08:43.382Z,17.53
2018-02-10T16:11:10.627Z,20.17
2018-02-10T16:13:37.095Z,16.70
2018-02-10T16:16:04.359Z,16.73
2018-02-10T16:18:30.838Z,18.07
2018-02-10T16:20:57.434Z,18.50
2018-02-10T16:23:24.649Z,15.87
2018-02-10T16:25:51.216Z,18.80
2018-02-10T16:28:18.391Z,19.60
2018-02-10T16:30:45.562Z,14.90
2018-02-10T16:33:12.034Z,17.83
2018-02-10T16:35:38.586Z,18.13
2018-02-10T16:38:05.022Z,22.23
2018-02-10T16:40:32.322Z,22.10
2018-02-10T16:42:58.784Z,22.60
2018-02-10T16:45:25.203Z,18.43
2018-02-10T16:47:51.699Z,19.77
2018-02-10T16:50:18.213Z,18.80
2018-02-10T16:55:17.824Z,20.03
2018-02-10T16:57:44.285Z,22.13
2018-02-10T17:00:11.479Z,20.40
2018-02-10T17:02:38.053Z,19.40
2018-02-10T17:05:05.247Z,20.70
2018-02-10T17:07:32.405Z,19.37
2018-02-10T17:09:58.869Z,17.57
2018-02-10T17:12:25.322Z,20.80
2018-02-10T17:14:51.764Z,20.10
2018-02-10T17:17:18.982Z,19.40
2018-02-10T17:19:45.488Z,17.60
2018-02-10T17:22:11.980Z,22.60
2018-02-10T17:24:39.281Z,19.80
2018-02-10T17:27:05.875Z,23.17
2018-02-10T17:29:32.408Z,20.23
2018-02-10T17:31:59.645Z,22.10
2018-02-10T17:34:26.171Z,22.67
2018-02-10T17:36:52.621Z,22.90
2018-02-10T17:39:19.957Z,27.63
2018-02-10T17:41:46.430Z,21.50
2018-02-10T17:44:13.614Z,18.50
2018-02-10T17:46:40.082Z,23.83
2018-02-10T17:49:06.535Z,26.70
2018-02-10T17:51:33.086Z,28.67
2018-02-10T17:54:07.157Z,26.73
2018-02-10T17:56:34.387Z,26.27
2018-02-10T17:59:00.827Z,23.03
2018-02-10T18:01:27.307Z,25.77
2018-02-10T18:03:54.484Z,24.10
2018-02-10T18:06:21.098Z,21.67
2018-02-10T18:08:47.719Z,25.00
2018-02-10T18:11:14.881Z,24.57
2018-02-10T18:13:42.095Z,24.57
2018-02-10T18:16:08.538Z,22.73
2018-02-10T18:18:35.003Z,22.90
2018-02-10T18:21:01.439Z,26.23
2018-02-10T18:23:27.994Z,24.63
2018-02-10T18:25:54.597Z,22.93
2018-02-10T18:28:21.789Z,26.93
2018-02-10T18:30:48.282Z,21.70
2018-02-10T18:33:15.514Z,21.80
2018-02-10T18:35:41.974Z,24.33
2018-02-10T18:38:09.178Z,20.13
2018-02-10T18:40:35.712Z,25.27
2018-02-10T18:43:02.390Z,25.50
2018-02-10T18:45:30.056Z,21.80
2018-02-10T18:47:57.282Z,22.67
2018-02-10T18:50:23.792Z,23.17
2018-02-10T18:52:50.304Z,26.17
2018-02-10T18:55:16.997Z,22.20
2018-02-10T18:57:43.569Z,24.37
2018-02-10T19:00:10.076Z,24.57
2018-02-10T19:02:36.482Z,28.90
2018-02-10T19:05:02.922Z,28.33
2018-02-10T19:07:29.469Z,26.90
2018-02-10T19:09:55.946Z,26.70
2018-02-10T19:12:22.360Z,25.93
2018-02-10T19:14:48.855Z,25.43
2018-02-10T19:17:15.322Z,22.70
2018-02-10T19:19:42.775Z,24.80
2018-02-10T19:22:10.126Z,22.63
2018-02-10T19:24:36.573Z,24.57
2018-02-10T19:27:03.053Z,23.43
2018-02-10T19:29:29.502Z,22.10
2018-02-10T19:31:55.926Z,26.90
2018-02-10T19:34:22.412Z,24.07
2018-02-10T19:36:49.589Z,22.37
2018-02-10T19:39:16.147Z,24.37
2018-02-10T19:41:42.584Z,21.00
2018-02-10T19:44:09.795Z,23.10
2018-02-10T19:46:36.219Z,27.87
2018-02-10T19:49:02.837Z,21.67
2018-02-10T19:51:29.334Z,23.37
2018-02-10T19:53:55.771Z,26.60
2018-02-10T19:56:22.194Z,26.13
2018-02-10T19:58:48.663Z,27.10
2018-02-10T20:01:15.308Z,26.17
2018-02-10T20:03:41.802Z,28.90
2018-02-10T20:06:08.303Z,28.17
2018-02-10T20:08:34.915Z,29.60
2018-02-10T20:11:01.379Z,27.30
2018-02-10T20:13:28.619Z,21.73
2018-02-10T20:15:55.047Z,22.30
2018-02-10T20:18:22.467Z,24.10
2018-02-10T20:20:49.032Z,24.30
2018-02-10T20:23:16.233Z,25.73
2018-02-10T20:25:42.640Z,27.23
2018-02-10T20:28:09.108Z,31.73
2018-02-10T20:30:35.577Z,28.20
2018-02-10T20:33:02.257Z,29.93
2018-02-10T20:35:28.935Z,28.43
2018-02-10T20:37:56.843Z,31.07
2018-02-10T20:40:24.181Z,29.37
2018-02-10T20:42:51.391Z,29.50
2018-02-10T20:45:17.835Z,29.13
2018-02-10T20:47:44.325Z,28.30
2018-02-10T20:50:10.945Z,32.70
2018-02-10T20:52:37.651Z,37.37
2018-02-10T20:55:04.874Z,32.77
2018-02-10T20:57:31.309Z,29.43
2018-02-10T20:59:57.758Z,30.20
2018-02-10T21:02:24.487Z,30.90
2018-02-10T21:04:51.147Z,28.93
2018-02-10T21:07:17.600Z,27.13
2018-02-10T21:09:44.755Z,29.00
2018-02-10T21:12:11.199Z,30.00
2018-02-10T21:14:38.555Z,28.73
2018-02-10T21:17:05.101Z,29.90
2018-02-10T21:19:31.764Z,33.30
2018-02-10T21:21:58.180Z,27.73
2018-02-10T21:24:24.784Z,23.97
2018-02-10T21:26:52.004Z,31.43
2018-02-10T21:29:18.674Z,33.90
2018-02-10T21:31:45.886Z,25.43
2018-02-10T21:34:12.408Z,25.90
2018-02-10T21:36:39.100Z,25.90
2018-02-10T21:39:06.410Z,26.17
2018-02-10T21:41:32.897Z,27.70
2018-02-10T21:43:59.351Z,23.50
2018-02-10T21:46:25.954Z,23.90
2018-02-10T21:48:52.413Z,21.97
2018-02-10T21:51:18.906Z,21.83
2018-02-10T21:53:46.107Z,22.50
2018-02-10T21:56:12.616Z,24.63
2018-02-10T21:58:39.772Z,24.77
2018-02-10T22:01:06.934Z,30.20
2018-02-10T22:03:33.431Z,29.73
2018-02-10T22:05:59.957Z,29.60
2018-02-10T22:08:26.405Z,33.33
2018-02-10T22:10:52.856Z,31.47
2018-02-10T22:13:20.025Z,29.00
2018-02-10T22:15:47.214Z,29.60
2018-02-10T22:18:13.765Z,28.70
2018-02-10T22:20:40.977Z,25.60
2018-02-10T22:23:07.412Z,25.30
2018-02-10T22:25:33.904Z,26.73
2018-02-10T22:28:00.356Z,27.17
2018-02-10T22:30:26.795Z,33.37
2018-02-10T22:32:53.387Z,29.50
2018-02-10T22:35:19.859Z,29.80
2018-02-10T22:37:47.009Z,27.20
2018-02-10T22:40:14.341Z,27.13
2018-02-10T22:42:40.814Z,27.63
2018-02-10T22:45:07.242Z,25.10
2018-02-10T22:47:33.702Z,32.50
2018-02-10T22:50:00.278Z,27.43
2018-02-10T22:52:26.754Z,25.43
2018-02-10T22:54:53.239Z,27.20
2018-02-10T22:57:20.440Z,29.47
2018-02-10T22:59:46.856Z,26.20
2018-02-10T23:02:14.071Z,22.10
2018-02-10T23:04:40.603Z,26.67
2018-02-10T23:07:07.157Z,24.17
2018-02-10T23:09:34.394Z,20.90
2018-02-10T23:12:00.858Z,23.80
2018-02-10T23:14:28.196Z,24.37
2018-02-10T23:16:55.508Z,24.20
2018-02-10T23:19:21.982Z,24.13
2018-02-10T23:21:48.424Z,22.57
2018-02-10T23:24:15.610Z,28.00
2018-02-10T23:26:42.016Z,23.33
2018-02-10T23:29:09.168Z,22.17
2018-02-10T23:31:36.385Z,25.10
2018-02-10T23:34:02.843Z,25.90
2018-02-10T23:36:29.289Z,23.87
2018-02-10T23:39:02.930Z,29.67
2018-02-10T23:41:29.388Z,27.43
2018-02-10T23:43:55.832Z,29.07
2018-02-10T23:46:22.369Z,24.10
2018-02-10T23:48:48.783Z,26.43
2018-02-10T23:51:15.258Z,21.90
2018-02-10T23:53:41.730Z,25.60
2018-02-10T23:56:08.136Z,23.70
2018-02-10T23:58:34.539Z,39.33
